Time;durP1;ratioP1;P1;durP2;ratioP2;P2;SDS_P1;SDS_P2;PMS_P1;PMS_P2;Temp;Humidity;BMP_temperature;BMP_pressure;BME280_temperature;BME280_humidity;BME280_pressure;Samples;Min_cycle;Max_cycle;Signal;HPM_P1;HPM_P2
2023/12/08 09:56:23;;;;;;;27.75;5.95;;;;;;;18.41;47.35;100615.06;5086532;27;20594;-35
2023/12/08 09:58:49;;;;;;;36.60;6.47;;;;;;;18.52;47.74;100618.56;5096353;28;20058;-36
2023/12/08 10:01:16;;;;;;;24.17;5.63;;;;;;;18.63;47.59;100611.88;5101398;28;20027;-36
2023/12/08 10:03:43;;;;;;;23.80;6.25;;;;;;;18.73;47.91;100621.97;5089840;28;20022;-36
2023/12/08 10:06:09;;;;;;;17.10;5.68;;;;;;;18.83;47.68;100626.53;5080248;28;20076;-34
2023/12/08 10:08:36;;;;;;;18.05;5.70;;;;;;;18.90;47.51;100632.53;5079805;28;20055;-37
2023/12/08 10:11:02;;;;;;;17.23;6.68;;;;;;;18.96;47.42;100630.56;5093400;28;20070;-36
2023/12/08 10:13:28;;;;;;;18.73;6.93;;;;;;;19.02;47.44;100634.94;5096253;28;20143;-37
2023/12/08 10:15:54;;;;;;;20.67;7.28;;;;;;;19.06;47.37;100631.31;5095558;28;20024;-36
2023/12/08 10:18:24;;;;;;;16.33;7.05;;;;;;;19.10;47.49;100634.28;5088596;28;20024;-35
2023/12/08 10:20:49;;;;;;;18.83;6.93;;;;;;;19.14;47.61;100640.03;5085578;28;20077;-36
2023/12/08 10:23:20;;;;;;;14.40;6.45;;;;;;;19.16;47.67;100632.31;5099007;28;20062;-37
2023/12/08 10:25:47;;;;;;;25.90;7.30;;;;;;;19.18;47.73;100630.94;5091724;28;20727;-37
2023/12/08 10:28:13;;;;;;;16.00;6.97;;;;;;;19.21;47.66;100622.13;5097322;28;20723;-37
2023/12/08 10:30:44;;;;;;;20.48;5.95;;;;;;;19.18;46.93;100619.94;5092889;28;20015;-37
2023/12/08 10:33:20;;;;;;;16.02;7.13;;;;;;;19.17;47.38;100620.22;5087834;28;20047;-36
2023/12/08 10:35:45;;;;;;;20.40;8.18;;;;;;;19.17;47.57;100620.22;5090734;28;20114;-37
2023/12/08 10:38:11;;;;;;;18.25;8.00;;;;;;;19.20;47.35;100623.22;5090013;28;20052;-38
2023/12/08 10:40:45;;;;;;;20.65;7.95;;;;;;;19.22;47.42;100622.91;5095592;28;20131;-39
2023/12/08 10:43:10;;;;;;;18.87;7.50;;;;;;;19.26;47.69;100623.97;5094553;28;20435;-38
2023/12/08 10:45:36;;;;;;;20.00;7.90;;;;;;;19.31;47.74;100621.19;5084167;28;20024;-38
2023/12/08 10:48:03;;;;;;;75.63;9.88;;;;;;;19.34;47.77;100619.78;5065120;28;20441;-37
2023/12/08 10:50:29;;;;;;;23.30;7.75;;;;;;;19.38;47.78;100621.63;5096200;28;20329;-37
2023/12/08 10:52:56;;;;;;;28.35;8.65;;;;;;;19.38;47.80;100629.06;5069054;28;20028;-37
2023/12/08 10:55:21;;;;;;;19.70;7.82;;;;;;;19.38;47.63;100631.81;5096209;28;20577;-37
2023/12/08 10:57:48;;;;;;;20.35;7.93;;;;;;;19.35;47.76;100630.47;5091683;28;20024;-38
2023/12/08 11:00:18;;;;;;;20.48;8.05;;;;;;;19.33;47.54;100632.69;5068768;28;20072;-36
2023/12/08 11:02:49;;;;;;;25.25;7.60;;;;;;;19.29;47.33;100630.81;5096523;28;20035;-35
2023/12/08 11:05:40;;;;;;;21.85;7.97;;;;;;;19.27;47.32;100628.34;5093825;28;20051;-35
2023/12/08 11:08:12;;;;;;;27.67;8.32;;;;;;;19.24;47.46;100639.94;5072149;28;20709;-37
2023/12/08 11:10:38;;;;;;;16.13;7.43;;;;;;;19.22;47.60;100639.41;5058424;28;20553;-37
2023/12/08 11:13:18;;;;;;;18.35;7.45;;;;;;;19.18;47.51;100638.34;5082957;28;20170;-38
2023/12/08 11:16:11;;;;;;;16.73;7.55;;;;;;;19.15;47.45;100645.22;5054662;28;20032;-36
2023/12/08 11:18:38;;;;;;;18.98;7.60;;;;;;;19.13;47.66;100646.63;5049955;28;20033;-36
2023/12/08 11:21:06;;;;;;;20.80;7.60;;;;;;;19.10;47.51;100641.72;5067685;28;20043;-36
2023/12/08 11:23:32;;;;;;;19.90;8.13;;;;;;;19.08;47.83;100645.56;5078866;28;20024;-36
2023/12/08 11:26:22;;;;;;;15.52;7.78;;;;;;;19.07;47.89;100646.69;5063013;28;20327;-38
2023/12/08 11:28:54;;;;;;;21.92;8.00;;;;;;;19.06;47.75;100639.53;5051222;28;20301;-36
2023/12/08 11:31:24;;;;;;;17.90;8.05;;;;;;;19.06;47.75;100641.47;5078605;28;20056;-37
2023/12/08 11:33:53;;;;;;;20.80;7.93;;;;;;;19.06;47.93;100639.53;5061381;28;20030;-37
2023/12/08 11:36:19;;;;;;;17.45;8.25;;;;;;;19.05;47.90;100639.84;5076329;28;20047;-37
2023/12/08 11:38:44;;;;;;;16.58;8.00;;;;;;;19.02;48.13;100638.50;5072787;28;20029;-36
2023/12/08 11:41:14;;;;;;;18.05;7.85;;;;;;;19.01;47.91;100642.34;5075264;28;20032;-38
2023/12/08 11:43:43;;;;;;;16.58;7.93;;;;;;;18.98;48.11;100634.69;5080392;28;20431;-38
2023/12/08 11:46:09;;;;;;;18.65;7.85;;;;;;;18.98;48.56;100644.84;5067826;28;20029;-36
2023/12/08 11:48:35;;;;;;;15.20;7.75;;;;;;;18.96;48.16;100647.03;5052636;28;20028;-39
2023/12/08 11:51:01;;;;;;;16.23;7.65;;;;;;;18.94;48.37;100643.78;5072324;28;20028;-38
2023/12/08 11:53:27;;;;;;;22.73;8.70;;;;;;;18.94;48.60;100649.28;5088720;28;20484;-38
2023/12/08 11:55:54;;;;;;;31.20;8.10;;;;;;;18.95;49.10;100649.00;5080637;28;20071;-39
2023/12/08 11:58:24;;;;;;;16.88;7.00;;;;;;;18.99;49.23;100657.47;5061191;28;20416;-36
2023/12/08 12:00:49;;;;;;;14.60;7.28;;;;;;;19.03;49.69;100655.78;5059935;28;20110;-36
2023/12/08 12:03:14;;;;;;;18.17;7.30;;;;;;;19.07;49.79;100659.59;5069143;28;20539;-36
2023/12/08 12:05:40;;;;;;;16.33;7.30;;;;;;;19.10;49.79;100653.53;5052212;28;20027;-38
2023/12/08 12:08:08;;;;;;;14.35;7.65;;;;;;;19.15;49.67;100656.22;5074339;28;20026;-38
2023/12/08 12:10:34;;;;;;;13.13;6.80;;;;;;;19.18;49.71;100652.91;5085378;28;20455;-37
2023/12/08 12:13:13;;;;;;;17.02;7.13;;;;;;;19.21;49.64;100648.75;5078014;28;20038;-35
2023/12/08 12:15:40;;;;;;;16.85;7.25;;;;;;;19.24;49.59;100646.25;5068915;28;20089;-35
2023/12/08 12:18:06;;;;;;;14.65;7.10;;;;;;;19.27;49.33;100647.59;5075767;28;20520;-35
2023/12/08 12:20:34;;;;;;;17.98;6.63;;;;;;;19.31;49.35;100642.34;5071115;28;20569;-38
2023/12/08 12:23:00;;;;;;;16.48;8.25;;;;;;;19.33;49.51;100632.69;5068776;28;20378;-37
2023/12/08 12:25:26;;;;;;;15.02;6.97;;;;;;;19.36;49.29;100634.88;5082636;28;20384;-38
2023/12/08 12:27:52;;;;;;;15.02;6.85;;;;;;;19.38;49.34;100646.38;5050050;28;20111;-37
2023/12/08 12:30:18;;;;;;;14.45;6.78;;;;;;;19.39;49.36;100645.25;5071865;28;20423;-35
2023/12/08 12:32:44;;;;;;;18.58;7.10;;;;;;;19.43;49.02;100642.75;5046775;28;20435;-36
2023/12/08 12:35:10;;;;;;;15.35;6.88;;;;;;;19.47;49.32;100651.25;5076690;28;20040;-36
2023/12/08 12:37:36;;;;;;;15.93;7.57;;;;;;;19.51;49.16;100644.88;5088393;28;20443;-35
2023/12/08 12:40:01;;;;;;;14.73;6.70;;;;;;;19.55;49.28;100642.38;5078557;28;20028;-35
2023/12/08 12:42:27;;;;;;;16.15;6.88;;;;;;;19.59;49.22;100640.66;5064178;28;20516;-34
2023/12/08 12:44:52;;;;;;;13.73;6.70;;;;;;;19.63;49.31;100649.13;5075622;28;20020;-38
2023/12/08 12:47:24;;;;;;;11.70;6.72;;;;;;;19.68;49.04;100654.56;5070548;28;20043;-35
2023/12/08 12:50:09;;;;;;;15.02;7.10;;;;;;;19.73;49.26;100649.03;5073178;28;20036;-35
2023/12/08 12:52:36;;;;;;;;;;;;;;;19.78;49.27;100648.97;5081651;28;20020;-35
2023/12/08 12:55:03;;;;;;;15.02;7.32;;;;;;;19.83;49.00;100656.34;5079718;28;19951;-39
2023/12/08 12:57:44;;;;;;;18.50;7.57;;;;;;;19.85;49.16;100657.72;5069644;28;20544;-38
2023/12/08 13:00:11;;;;;;;16.17;6.95;;;;;;;19.87;48.99;100660.97;5069731;28;20033;-39
2023/12/08 13:02:37;;;;;;;15.52;7.85;;;;;;;19.89;48.79;100666.19;5048631;28;20040;-37
2023/12/08 13:05:05;;;;;;;17.13;7.95;;;;;;;19.91;49.14;100663.94;5077327;28;20024;-37
2023/12/08 13:07:30;;;;;;;24.17;8.57;;;;;;;19.92;49.06;100665.59;5074252;28;20537;-37
2023/12/08 13:09:56;;;;;;;30.42;11.20;;;;;;;19.93;49.18;100671.94;5069566;28;20040;-33
2023/12/08 13:12:22;;;;;;;28.63;10.60;;;;;;;19.93;48.78;100671.94;5070071;28;20040;-37
2023/12/08 13:14:48;;;;;;;297.17;21.05;;;;;;;19.93;48.90;100669.19;5074576;28;20028;-38
2023/12/08 13:17:13;;;;;;;43.35;12.77;;;;;;;19.95;49.24;100680.69;5075603;28;20029;-38
2023/12/08 13:19:39;;;;;;;40.67;12.73;;;;;;;19.92;48.94;100679.34;5082166;28;20057;-37
2023/12/08 13:22:04;;;;;;;43.55;14.00;;;;;;;19.88;49.24;100681.88;5078371;28;20115;-37
2023/12/08 13:24:29;;;;;;;41.83;12.75;;;;;;;19.86;49.08;100677.78;5076692;28;20031;-37
2023/12/08 13:26:55;;;;;;;49.80;13.70;;;;;;;19.82;49.14;100690.44;5081228;28;20107;-36
2023/12/08 13:29:20;;;;;;;43.60;13.65;;;;;;;19.77;49.26;100680.31;5074222;28;20028;-38
2023/12/08 13:31:45;;;;;;;50.90;13.77;;;;;;;19.74;49.29;100691.91;5080419;28;20039;-37
2023/12/08 13:34:11;;;;;;;42.38;13.43;;;;;;;19.72;49.23;100696.88;5064730;28;20480;-37
2023/12/08 13:36:36;;;;;;;31.00;12.82;;;;;;;19.69;49.64;100701.03;5070568;28;20135;-38
2023/12/08 13:39:03;;;;;;;40.30;13.05;;;;;;;19.67;49.65;100702.44;5069027;28;20035;-38
2023/12/08 13:41:29;;;;;;;39.47;13.68;;;;;;;19.64;49.70;100703.00;5067420;28;20396;-38
2023/12/08 13:43:54;;;;;;;34.47;12.90;;;;;;;19.62;49.62;100716.22;5074382;28;20024;-36
2023/12/08 13:46:20;;;;;;;38.90;12.88;;;;;;;19.60;49.53;100716.53;5075028;28;20016;-37
2023/12/08 13:48:45;;;;;;;43.28;13.13;;;;;;;19.55;49.92;100705.59;5069271;28;20027;-37
2023/12/08 13:51:11;;;;;;;36.42;12.88;;;;;;;19.53;49.95;100702.28;5081119;28;20032;-37
2023/12/08 13:53:36;;;;;;;35.65;11.25;;;;;;;19.49;50.00;100699.31;5074266;28;20029;-36
2023/12/08 13:56:01;;;;;;;28.23;10.80;;;;;;;19.47;49.92;100706.22;5077221;28;20036;-37
2023/12/08 13:58:27;;;;;;;30.15;11.45;;;;;;;19.44;50.27;100702.13;5076219;28;20028;-38
2023/12/08 14:00:52;;;;;;;29.63;11.10;;;;;;;19.42;50.13;100701.56;5071127;28;20480;-38
2023/12/08 14:03:17;;;;;;;29.10;10.77;;;;;;;19.38;50.43;100704.09;5082149;28;20492;-38
2023/12/08 14:05:44;;;;;;;25.92;10.45;;;;;;;19.36;50.35;100706.31;5078898;28;20077;-38
2023/12/08 14:08:09;;;;;;;29.77;10.68;;;;;;;19.33;50.35;100708.81;5068747;28;20033;-36
2023/12/08 14:10:35;;;;;;;28.25;10.60;;;;;;;19.30;50.49;100715.72;5069621;28;20043;-36
2023/12/08 14:13:00;;;;;;;24.05;10.32;;;;;;;19.28;50.43;100717.94;5090239;28;20016;-36
2023/12/08 14:15:26;;;;;;;26.25;9.45;;;;;;;19.29;50.37;100718.72;5060611;28;20024;-36
2023/12/08 14:17:51;;;;;;;26.25;10.00;;;;;;;19.27;50.05;100720.97;5070365;28;20024;-36
2023/12/08 14:20:17;;;;;;;25.42;10.32;;;;;;;19.24;50.60;100720.44;5071141;28;20054;-37
2023/12/08 14:22:42;;;;;;;29.33;9.82;;;;;;;19.22;50.42;100721.84;5073262;28;20496;-37
2023/12/08 14:25:07;;;;;;;25.08;9.65;;;;;;;19.21;50.69;100731.19;5068947;28;20115;-38
2023/12/08 14:27:33;;;;;;;22.25;9.55;;;;;;;19.18;50.60;100713.34;5077432;28;20024;-38
2023/12/08 14:29:58;;;;;;;20.75;9.23;;;;;;;19.15;50.66;100705.66;5068760;28;20028;-37
2023/12/08 14:32:24;;;;;;;22.73;8.52;;;;;;;19.16;50.67;100714.75;5077764;28;20085;-37
2023/12/08 14:34:49;;;;;;;24.55;9.20;;;;;;;19.15;50.61;100713.09;5073093;28;20055;-38
2023/12/08 14:37:14;;;;;;;20.20;8.60;;;;;;;19.13;50.89;100716.13;5059125;28;20034;-38
2023/12/08 14:39:40;;;;;;;18.83;7.95;;;;;;;19.12;50.81;100716.44;5067335;28;20060;-38
2023/12/08 14:42:05;;;;;;;23.38;9.00;;;;;;;19.10;50.89;100713.94;5054507;28;20166;-36
2023/12/08 14:44:30;;;;;;;17.70;8.48;;;;;;;19.08;51.34;100703.25;5083802;28;20084;-38
2023/12/08 14:46:56;;;;;;;19.35;7.70;;;;;;;19.07;51.25;100706.31;5079600;28;20503;-37
2023/12/08 14:49:21;;;;;;;19.65;7.80;;;;;;;19.06;50.95;100713.69;5089390;28;20032;-37
2023/12/08 14:51:47;;;;;;;18.73;8.15;;;;;;;19.05;51.27;100714.81;5080804;28;20028;-38
2023/12/08 14:54:12;;;;;;;23.13;7.80;;;;;;;19.06;51.03;100715.63;5079355;28;20015;-37
2023/12/08 14:56:41;;;;;;;15.45;7.38;;;;;;;19.05;51.25;100720.31;5076848;28;20024;-38
2023/12/08 14:59:07;;;;;;;20.42;7.30;;;;;;;19.06;51.21;100727.44;5091271;28;20334;-37
2023/12/08 15:01:32;;;;;;;16.23;7.07;;;;;;;19.08;51.31;100729.91;5094612;28;20515;-38
2023/12/08 15:03:58;;;;;;;18.45;7.32;;;;;;;19.08;51.23;100738.97;5077573;28;20069;-36
2023/12/08 15:06:23;;;;;;;19.70;7.68;;;;;;;19.10;51.05;100738.69;5072225;28;20100;-38
2023/12/08 15:08:48;;;;;;;20.23;7.22;;;;;;;19.12;51.14;100749.41;5075839;28;20021;-39
2023/12/08 15:11:14;;;;;;;18.45;6.75;;;;;;;19.14;50.86;100745.25;5075433;28;20498;-37
2023/12/08 15:13:40;;;;;;;18.30;6.75;;;;;;;19.14;51.05;100749.91;5076415;28;20258;-38
2023/12/08 15:16:06;;;;;;;16.20;6.75;;;;;;;19.14;51.11;100752.66;5084027;28;20028;-36
2023/12/08 15:18:32;;;;;;;20.42;6.80;;;;;;;19.13;51.21;100746.34;5077288;28;20067;-36
2023/12/08 15:20:58;;;;;;;18.75;6.57;;;;;;;19.13;51.10;100748.25;5074558;28;20480;-36
2023/12/08 15:23:31;;;;;;;16.95;6.38;;;;;;;19.12;51.17;100752.94;5076106;28;20036;-36
2023/12/08 15:25:57;;;;;;;15.38;6.68;;;;;;;19.10;50.90;100755.16;5070760;28;20107;-36
2023/12/08 15:28:22;;;;;;;15.07;6.45;;;;;;;19.08;51.25;100763.69;5077042;28;20416;-37
2023/12/08 15:30:47;;;;;;;17.88;6.22;;;;;;;19.07;51.31;100763.97;5081562;28;20038;-35
2023/12/08 15:33:13;;;;;;;21.42;7.20;;;;;;;19.06;51.42;100765.09;5063744;28;20032;-36
2023/12/08 15:35:38;;;;;;;14.30;5.78;;;;;;;19.05;51.57;100760.69;5065233;28;20081;-38
2023/12/08 15:38:09;;;;;;;15.02;6.18;;;;;;;19.03;51.52;100771.13;5074951;28;20504;-35
2023/12/08 15:40:36;;;;;;;17.52;6.30;;;;;;;19.01;51.44;100771.44;5078858;28;20179;-37
2023/12/08 15:43:05;;;;;;;14.27;6.63;;;;;;;19.01;51.72;100781.59;5084394;28;20429;-37
2023/12/08 15:45:30;;;;;;;14.52;5.85;;;;;;;19.01;51.59;100781.59;5079604;28;20032;-38
2023/12/08 15:47:56;;;;;;;15.18;6.53;;;;;;;19.02;51.46;100778.56;5078422;28;20361;-36
2023/12/08 15:50:22;;;;;;;14.50;5.68;;;;;;;19.03;51.60;100779.38;5076900;28;20028;-35
2023/12/08 15:52:48;;;;;;;15.20;5.88;;;;;;;19.05;51.65;100780.72;5079060;28;20485;-37
2023/12/08 15:55:13;;;;;;;14.52;6.13;;;;;;;19.07;51.51;100778.53;5077931;28;20159;-37
2023/12/08 15:57:38;;;;;;;19.02;6.30;;;;;;;19.08;51.54;100777.44;5083593;28;20408;-37
2023/12/08 16:00:05;;;;;;;16.05;5.60;;;;;;;19.08;51.52;100787.59;5083002;28;20435;-38
2023/12/08 16:02:30;;;;;;;12.32;5.85;;;;;;;19.08;51.58;100787.59;5062925;28;20031;-38
2023/12/08 16:04:55;;;;;;;13.07;5.25;;;;;;;19.10;51.56;100781.81;5075491;28;20013;-35
2023/12/08 16:07:22;;;;;;;18.88;5.88;;;;;;;19.10;51.28;100790.88;5070215;28;20054;-38
2023/12/08 16:09:48;;;;;;;13.38;5.80;;;;;;;19.11;51.54;100791.72;5076210;28;20466;-36
2023/12/08 16:12:13;;;;;;;14.80;5.47;;;;;;;19.13;51.49;100794.97;5076592;28;20028;-36
2023/12/08 16:14:42;;;;;;;14.60;6.05;;;;;;;19.16;51.57;100788.91;5070411;28;20039;-38
2023/12/08 16:17:07;;;;;;;12.02;5.05;;;;;;;19.19;51.47;100791.06;5075535;28;20025;-39
2023/12/08 16:19:33;;;;;;;12.45;5.30;;;;;;;19.23;51.69;100800.41;5079517;28;20062;-37
2023/12/08 16:21:59;;;;;;;9.63;4.80;;;;;;;19.28;51.54;100794.88;5072364;28;20103;-37
2023/12/08 16:24:24;;;;;;;15.20;5.38;;;;;;;19.35;51.51;100792.63;5061801;28;20024;-39
2023/12/08 16:26:50;;;;;;;13.95;5.25;;;;;;;19.40;51.36;100787.06;5077565;28;20563;-36
2023/12/08 16:29:15;;;;;;;12.32;5.25;;;;;;;19.48;51.32;100784.81;5074859;28;20028;-37
2023/12/08 16:31:40;;;;;;;103.63;7.25;;;;;;;19.52;51.51;100786.69;5076488;28;20016;-41
2023/12/08 16:34:06;;;;;;;22.80;5.40;;;;;;;19.60;51.52;100779.75;5059039;28;20029;-39
2023/12/08 16:36:31;;;;;;;20.80;5.53;;;;;;;19.70;51.72;100782.38;5076710;28;19999;-40
2023/12/08 16:38:57;;;;;;;18.63;4.70;;;;;;;19.79;51.71;100779.03;5075869;28;20024;-39
2023/12/08 16:41:22;;;;;;;280.23;12.55;;;;;;;19.88;51.66;100780.88;5073640;28;20031;-36
2023/12/08 16:43:48;;;;;;;30.70;5.90;;;;;;;19.97;52.12;100780.25;5075786;28;20024;-38
2023/12/08 16:46:13;;;;;;;30.80;5.43;;;;;;;20.04;51.86;100784.28;5080620;28;20025;-37
2023/12/08 16:48:38;;;;;;;48.70;6.47;;;;;;;20.11;51.46;100788.63;5081808;28;20039;-34
2023/12/08 16:51:04;;;;;;;17.23;5.10;;;;;;;20.17;51.61;100785.53;5077009;28;20095;-34
2023/12/08 16:53:29;;;;;;;29.73;5.45;;;;;;;20.23;51.44;100785.47;5083295;28;20028;-34
2023/12/08 16:55:55;;;;;;;19.75;4.78;;;;;;;20.26;51.59;100791.19;5081103;28;20068;-34
2023/12/08 16:58:20;;;;;;;16.48;5.03;;;;;;;20.30;51.48;100791.44;5080872;28;20020;-35
2023/12/08 17:00:46;;;;;;;15.80;4.32;;;;;;;20.31;51.55;100785.63;5080222;28;20027;-38
2023/12/08 17:03:11;;;;;;;17.67;5.28;;;;;;;20.33;51.42;100791.66;5072473;28;20074;-35
2023/12/08 17:05:37;;;;;;;16.35;4.75;;;;;;;20.35;51.43;100805.13;5083193;28;20696;-34
2023/12/08 17:08:02;;;;;;;84.35;8.38;;;;;;;20.35;51.33;100802.38;5075885;28;20072;-36
2023/12/08 17:10:28;;;;;;;25.27;5.18;;;;;;;20.33;51.29;100797.16;5082020;28;20032;-36
2023/12/08 17:12:54;;;;;;;15.07;5.32;;;;;;;20.33;51.40;100799.09;5070623;28;20039;-36
2023/12/08 17:15:19;;;;;;;14.00;4.50;;;;;;;20.29;51.29;100803.56;5072109;28;20085;-36
2023/12/08 17:17:45;;;;;;;10.95;4.38;;;;;;;20.26;51.33;100804.97;5071962;28;20086;-36
2023/12/08 17:20:12;;;;;;;12.75;4.35;;;;;;;20.23;51.47;100801.97;5081333;28;20047;-36
2023/12/08 17:22:37;;;;;;;12.35;4.50;;;;;;;20.22;51.20;100805.84;5083762;28;20095;-36
2023/12/08 17:25:03;;;;;;;9.98;4.28;;;;;;;20.18;51.33;100794.59;5080985;28;20112;-36
2023/12/08 17:27:28;;;;;;;10.77;4.15;;;;;;;20.15;51.74;100789.69;5080063;28;20024;-35
2023/12/08 17:29:54;;;;;;;13.57;4.50;;;;;;;20.11;51.55;100797.69;5076014;28;20028;-36
2023/12/08 17:32:19;;;;;;;14.50;4.63;;;;;;;20.08;51.82;100794.72;5056537;28;20024;-37
2023/12/08 17:34:45;;;;;;;13.02;4.45;;;;;;;20.06;51.81;100799.69;5076757;28;20036;-36
2023/12/08 17:37:10;;;;;;;10.27;4.30;;;;;;;20.00;51.70;100794.25;5048669;28;20027;-36
2023/12/08 17:39:36;;;;;;;10.00;3.95;;;;;;;19.99;51.73;100798.09;5070121;28;20393;-36
2023/12/08 17:42:02;;;;;;;10.02;4.32;;;;;;;19.97;51.77;100802.25;5048489;28;20470;-36
2023/12/08 17:44:33;;;;;;;13.02;4.93;;;;;;;19.95;51.69;100808.06;5096093;28;20016;-37
2023/12/08 17:47:00;;;;;;;14.57;4.25;;;;;;;19.94;51.81;100803.66;5053814;28;20085;-36
2023/12/08 17:49:26;;;;;;;12.30;4.15;;;;;;;19.94;51.54;100816.56;5076770;28;20500;-36
2023/12/08 17:51:52;;;;;;;14.48;4.65;;;;;;;19.94;51.70;100822.06;5079045;28;20032;-36
2023/12/08 17:54:18;;;;;;;13.68;4.30;;;;;;;19.93;51.53;100810.25;5074926;28;20089;-36
2023/12/08 17:56:43;;;;;;;11.52;4.60;;;;;;;19.95;51.41;100829.22;5074109;28;20105;-36
2023/12/08 17:59:08;;;;;;;12.40;4.40;;;;;;;19.95;51.56;100826.47;5082134;28;20809;-36
2023/12/08 18:01:34;;;;;;;12.82;4.97;;;;;;;19.96;51.57;100828.13;5076867;28;20036;-36
2023/12/08 18:04:00;;;;;;;11.52;4.50;;;;;;;19.95;51.73;100829.22;5058326;28;20046;-36
2023/12/08 18:06:25;;;;;;;14.32;4.72;;;;;;;19.95;51.72;100832.81;5068596;28;20031;-36
2023/12/08 18:08:51;;;;;;;12.88;4.80;;;;;;;19.93;51.43;100824.03;5064838;28;20046;-36
2023/12/08 18:11:24;;;;;;;11.50;4.60;;;;;;;19.91;51.70;100833.66;5075523;28;20027;-36
2023/12/08 18:13:50;;;;;;;13.13;4.70;;;;;;;19.90;51.76;100835.59;5067337;28;20024;-36
2023/12/08 18:16:22;;;;;;;13.82;4.75;;;;;;;19.90;51.80;100832.84;5073169;28;20310;-37
2023/12/08 18:18:48;;;;;;;9.35;3.88;;;;;;;19.89;51.72;100833.97;5082959;28;20042;-37
2023/12/08 18:21:30;;;;;;;12.00;4.70;;;;;;;19.86;51.48;100838.13;5083807;28;20404;-35
2023/12/08 18:23:57;;;;;;;16.02;5.00;;;;;;;19.85;51.75;100841.97;5076088;28;20036;-35
2023/12/08 18:26:23;;;;;;;8.90;4.03;;;;;;;19.85;51.73;100830.13;5082078;28;20112;-36
2023/12/08 18:28:49;;;;;;;10.98;4.30;;;;;;;19.86;51.84;100834.53;5056224;28;20107;-36
2023/12/08 18:31:21;;;;;;;11.38;4.65;;;;;;;19.86;51.81;100832.63;5083098;28;20028;-35
2023/12/08 18:33:48;;;;;;;14.30;4.78;;;;;;;19.86;51.84;100840.03;5075224;28;20472;-36
2023/12/08 18:36:18;;;;;;;10.73;4.75;;;;;;;19.87;51.54;100845.25;5070959;28;20025;-36
2023/12/08 18:38:43;;;;;;;13.18;4.28;;;;;;;19.86;51.57;100838.13;5077272;28;20032;-35
2023/12/08 18:41:08;;;;;;;14.55;4.82;;;;;;;19.87;51.63;100834.25;5068886;28;20454;-35
2023/12/08 18:43:34;;;;;;;13.18;4.32;;;;;;;19.86;51.69;100840.03;5075961;28;20130;-36
2023/12/08 18:45:59;;;;;;;14.15;5.28;;;;;;;19.84;51.59;100834.00;5075538;28;20400;-36
2023/12/08 18:48:24;;;;;;;11.45;4.78;;;;;;;19.80;51.50;100830.97;5065032;28;20034;-36
2023/12/08 18:50:50;;;;;;;16.58;5.05;;;;;;;19.78;51.64;100838.72;5077895;28;20104;-36
2023/12/08 18:53:15;;;;;;;15.57;4.28;;;;;;;19.76;51.89;100829.13;5075701;28;20055;-36
2023/12/08 18:55:41;;;;;;;9.63;4.15;;;;;;;19.73;51.64;100838.75;5069061;28;20067;-36
2023/12/08 18:58:07;;;;;;;13.27;4.50;;;;;;;19.70;51.94;100845.63;5086026;28;20032;-36
2023/12/08 19:00:32;;;;;;;13.27;4.50;;;;;;;19.67;51.91;100843.47;5070170;28;20039;-35
2023/12/08 19:02:58;;;;;;;11.18;4.25;;;;;;;19.65;51.84;100837.44;5073827;28;20039;-35
2023/12/08 19:05:23;;;;;;;10.95;4.57;;;;;;;19.65;51.65;100842.13;5059567;28;20473;-36
2023/12/08 19:07:48;;;;;;;12.13;4.35;;;;;;;19.64;51.82;100849.53;5074076;28;20039;-36
2023/12/08 19:10:14;;;;;;;16.80;4.78;;;;;;;19.66;51.88;100852.81;5073974;28;20023;-37
2023/12/08 19:12:39;;;;;;;13.15;5.00;;;;;;;19.67;51.98;100842.66;5080231;28;20085;-36
2023/12/08 19:15:06;;;;;;;14.00;4.78;;;;;;;19.68;51.98;100842.38;5077388;28;20029;-35
2023/12/08 19:17:32;;;;;;;12.30;4.80;;;;;;;19.71;52.21;100852.78;5077331;28;20115;-35
2023/12/08 19:19:57;;;;;;;13.25;5.00;;;;;;;19.73;52.11;100856.06;5064048;28;20330;-35
2023/12/08 19:22:22;;;;;;;14.50;4.68;;;;;;;19.76;51.81;100851.91;5069576;28;20133;-37
2023/12/08 19:24:48;;;;;;;10.77;4.30;;;;;;;19.76;52.00;100857.41;5073258;28;20309;-35
2023/12/08 19:27:13;;;;;;;12.00;4.53;;;;;;;19.78;51.89;100851.63;5072034;28;20124;-36
2023/12/08 19:29:40;;;;;;;17.35;5.00;;;;;;;19.79;51.89;100859.59;5069402;28;20663;-36
2023/12/08 19:32:06;;;;;;;14.25;5.07;;;;;;;19.78;51.89;100849.72;5057067;28;20036;-36
2023/12/08 19:34:31;;;;;;;13.93;5.13;;;;;;;19.78;51.25;100854.38;5079992;28;20417;-36
2023/12/08 19:36:57;;;;;;;15.07;4.53;;;;;;;19.75;51.64;100850.28;5083451;28;20097;-36
2023/12/08 19:39:23;;;;;;;13.38;4.97;;;;;;;19.75;51.94;100863.22;5075156;28;20032;-36
2023/12/08 19:41:48;;;;;;;11.73;4.65;;;;;;;19.71;51.76;100863.78;5080868;28;20044;-36
2023/12/08 19:44:14;;;;;;;14.00;4.55;;;;;;;19.68;51.95;100856.13;5080538;28;20032;-36
2023/12/08 19:46:39;;;;;;;11.52;4.53;;;;;;;19.65;52.11;100855.88;5094404;28;20510;-36
2023/12/08 19:49:05;;;;;;;12.68;4.70;;;;;;;19.62;51.92;100857.28;5097027;27;20036;-36
2023/12/08 19:51:30;;;;;;;16.38;4.35;;;;;;;19.61;52.19;100857.53;5077510;28;20034;-36
2023/12/08 19:53:56;;;;;;;14.50;4.75;;;;;;;19.60;51.86;100858.66;5059740;28;20115;-36
2023/12/08 19:56:21;;;;;;;14.15;4.70;;;;;;;19.59;52.14;100854.28;5082326;28;20052;-36
2023/12/08 19:58:47;;;;;;;13.68;4.57;;;;;;;19.57;52.31;100865.56;5081605;28;20040;-36
2023/12/08 20:01:12;;;;;;;13.18;4.63;;;;;;;19.58;52.25;100858.94;5074596;28;20482;-35
2023/12/08 20:03:38;;;;;;;12.05;4.72;;;;;;;19.59;52.21;100862.53;5073930;28;20028;-36
2023/12/08 20:06:03;;;;;;;14.68;4.97;;;;;;;19.61;52.25;100865.78;5093443;28;20023;-36
2023/12/08 20:08:29;;;;;;;13.93;4.72;;;;;;;19.61;52.18;100861.13;5080897;28;20439;-36
2023/12/08 20:10:56;;;;;;;13.25;4.28;;;;;;;19.64;52.19;100867.97;5077283;28;20077;-37
2023/12/08 20:13:21;;;;;;;12.88;4.35;;;;;;;19.64;52.04;100865.22;5072588;28;20517;-36
2023/12/08 20:15:47;;;;;;;11.77;4.60;;;;;;;19.64;52.29;100877.03;5070095;28;20032;-36
2023/12/08 20:18:12;;;;;;;13.35;4.63;;;;;;;19.63;52.03;100878.16;5092805;27;20035;-36
2023/12/08 20:20:38;;;;;;;11.52;4.13;;;;;;;19.62;52.04;100873.75;5075381;28;20032;-36
2023/12/08 20:23:03;;;;;;;14.60;4.72;;;;;;;19.60;52.33;100864.97;5077216;28;20028;-36
2023/12/08 20:25:29;;;;;;;11.15;3.92;;;;;;;19.59;52.29;100873.50;5078752;28;20421;-36
2023/12/08 20:27:55;;;;;;;12.13;4.65;;;;;;;19.58;52.10;100889.19;5080051;28;20036;-36
2023/12/08 20:30:20;;;;;;;11.40;4.50;;;;;;;19.57;52.06;100871.06;5075318;28;20043;-35
2023/12/08 20:32:45;;;;;;;12.20;4.45;;;;;;;19.55;52.20;100876.81;5080117;28;20035;-36
2023/12/08 20:35:11;;;;;;;10.27;4.43;;;;;;;19.54;52.33;100879.88;5075689;28;20025;-35
2023/12/08 20:37:36;;;;;;;16.08;4.85;;;;;;;19.52;52.44;100876.56;5081763;28;20027;-36
2023/12/08 20:40:03;;;;;;;13.45;4.82;;;;;;;19.50;52.37;100878.81;5072399;28;20063;-36
2023/12/08 20:42:29;;;;;;;17.00;4.63;;;;;;;19.49;52.40;100874.41;5061605;28;20505;-36
2023/12/08 20:44:55;;;;;;;14.77;4.35;;;;;;;19.49;52.31;100864.22;5075715;28;20341;-36
2023/12/08 20:47:20;;;;;;;11.05;4.22;;;;;;;19.49;52.37;100871.66;5076304;28;20515;-36
2023/12/08 20:49:45;;;;;;;14.75;4.53;;;;;;;19.49;52.51;100866.97;5077535;28;20029;-36
2023/12/08 20:52:11;;;;;;;12.07;4.63;;;;;;;19.51;52.62;100877.69;5083700;28;20484;-36
2023/12/08 20:54:36;;;;;;;13.55;4.88;;;;;;;19.52;52.32;100879.31;5069930;28;20052;-36
2023/12/08 20:57:02;;;;;;;13.90;4.90;;;;;;;19.54;52.42;100877.13;5079110;28;20123;-36
2023/12/08 20:59:27;;;;;;;14.48;4.50;;;;;;;19.54;52.57;100872.44;5078365;28;20104;-36
2023/12/08 21:01:52;;;;;;;11.73;3.95;;;;;;;19.56;52.58;100877.66;5078949;28;20119;-36
2023/12/08 21:04:18;;;;;;;13.85;4.85;;;;;;;19.57;52.39;100873.81;5064596;28;20028;-35
2023/12/08 21:06:44;;;;;;;12.40;4.65;;;;;;;19.56;52.31;100881.22;5067415;28;20032;-36
2023/12/08 21:09:13;;;;;;;12.13;4.40;;;;;;;19.56;52.67;100874.91;5067209;28;20321;-36